Choice, Texas
Current Conditions -  °F | °C
As of 5:55 AM on Monday 22 Dec 2014 (Local Time) from KOCH Reporting Station
Overcast Overcast  
Wind Chill: 54°   Ceiling: 300
Heat Index: 54°   Visibility: 3mi
Dew Point: 52°   Wind: 9mph
Humidity: 94%   Direction: 170°S
Pressure: 29.74"   Gusts: NA
Location:  31.7586°N, 94.1975°W
Report Text: KOCH 221155Z AUTO 17008KT 3SM OVC003 12/11 A2974 RMK AO1 10120 20100 57020
Loading
Personal Weather Stations






























Interactive Weather Map New forecast layout! Learn more

10-Day Weather Forecast

Advertisements
Track Severe Weather on mobile